Terminal Aerodrome Forecast
Issued by NWS Newport/Morehead City, NC

Home | Current Version | Previous Version | Text Only | Print | Product List | Glossary On
Versions: 1 2 3 4 5 6 7 8 9 10 11 12 13 14 15 16 17
000
FTUS42 KMHX 252346
TAFEWN
TAF
KEWN 252346Z 2600/2624 16009KT P6SM FEW030
     FM260800 17009KT 6SM -SHRA SCT020 OVC040
     FM261300 19013G23KT 5SM SHRA SCT015 BKN030
     FM261800 20013G23KT P6SM VCSH BKN035=

USA.gov is the U.S. government's official web portal to all federal, state and local government web resources and services.